Time;durP1;ratioP1;P1;durP2;ratioP2;P2;SDS_P1;SDS_P2;PMS_P1;PMS_P2;Temp;Humidity;BMP_temperature;BMP_pressure;BME280_temperature;BME280_humidity;BME280_pressure;Samples;Min_cycle;Max_cycle;Signal;HPM_P1;HPM_P2
2021/09/03 00:00:21;;;;;;;26.63;8.88;;;16.40;99.90;;;;;;5030616;28;20029;-60
2021/09/03 00:02:47;;;;;;;25.90;8.68;;;16.40;99.90;;;;;;5029938;28;20064;-59
2021/09/03 00:05:15;;;;;;;27.50;7.88;;;16.40;99.90;;;;;;5030705;28;20041;-58
2021/09/03 00:07:41;;;;;;;31.35;8.48;;;16.30;99.90;;;;;;5030444;28;20025;-59
2021/09/03 00:10:09;;;;;;;26.48;8.25;;;16.30;99.90;;;;;;5030929;28;20443;-60
2021/09/03 00:12:35;;;;;;;29.65;8.25;;;16.30;99.90;;;;;;5029928;28;20388;-59
2021/09/03 00:15:02;;;;;;;28.00;8.43;;;16.30;99.90;;;;;;5030858;28;20021;-58
2021/09/03 00:17:28;;;;;;;28.17;9.00;;;16.30;99.90;;;;;;5029752;28;20107;-58
2021/09/03 00:19:54;;;;;;;29.55;8.27;;;16.30;99.90;;;;;;5030679;28;20030;-59
2021/09/03 00:22:20;;;;;;;25.35;8.82;;;16.30;99.90;;;;;;5030160;28;20069;-59
2021/09/03 00:24:45;;;;;;;24.80;8.23;;;16.30;99.90;;;;;;5030472;28;20091;-58
2021/09/03 00:27:11;;;;;;;25.20;8.57;;;16.20;99.90;;;;;;5029818;28;20030;-60
2021/09/03 00:29:37;;;;;;;25.05;8.60;;;16.30;99.90;;;;;;5062562;28;20041;-58
2021/09/03 00:32:03;;;;;;;33.88;9.20;;;16.20;99.90;;;;;;5032397;28;20071;-59
2021/09/03 00:34:28;;;;;;;30.48;9.93;;;16.20;99.90;;;;;;5034033;28;20037;-59
2021/09/03 00:36:54;;;;;;;28.20;8.52;;;16.20;99.90;;;;;;5033547;28;20058;-58
2021/09/03 00:39:20;;;;;;;24.38;8.55;;;16.20;99.90;;;;;;5034294;28;20068;-58
2021/09/03 00:41:46;;;;;;;22.13;8.40;;;16.20;99.90;;;;;;5033252;28;20519;-59
2021/09/03 00:44:12;;;;;;;31.50;8.48;;;16.20;99.90;;;;;;5034164;28;20029;-61
2021/09/03 00:46:37;;;;;;;26.80;9.18;;;16.20;99.90;;;;;;5033414;28;20033;-61
2021/09/03 00:49:03;;;;;;;24.95;8.57;;;16.30;99.90;;;;;;5033682;28;20033;-60
2021/09/03 00:51:29;;;;;;;27.23;9.18;;;16.20;99.90;;;;;;5033327;28;20036;-60
2021/09/03 00:53:55;;;;;;;30.70;9.32;;;16.20;99.90;;;;;;5032281;28;20029;-60
2021/09/03 00:56:21;;;;;;;28.30;8.98;;;16.20;99.90;;;;;;5033851;28;20028;-59
2021/09/03 00:58:46;;;;;;;31.85;9.27;;;16.20;99.90;;;;;;5033439;28;20029;-60
2021/09/03 01:01:12;;;;;;;28.23;9.25;;;16.10;99.90;;;;;;5032477;28;20037;-61
2021/09/03 01:03:38;;;;;;;24.17;8.25;;;16.20;99.90;;;;;;5032968;28;20120;-59
2021/09/03 01:06:05;;;;;;;33.22;9.13;;;16.20;99.90;;;;;;5033967;28;20026;-59
2021/09/03 01:08:32;;;;;;;29.92;9.38;;;16.10;99.90;;;;;;5033199;28;20041;-60
2021/09/03 01:11:00;;;;;;;26.85;9.10;;;16.20;99.90;;;;;;5033519;28;20362;-60
2021/09/03 01:13:26;;;;;;;32.22;9.15;;;16.10;99.90;;;;;;5032942;28;20026;-60
2021/09/03 01:15:52;;;;;;;31.05;9.32;;;16.10;99.90;;;;;;5033337;28;20534;-58
2021/09/03 01:18:18;;;;;;;34.15;9.90;;;16.10;99.90;;;;;;5033041;28;20026;-60
2021/09/03 01:20:44;;;;;;;32.08;9.48;;;16.10;99.90;;;;;;5032922;28;20032;-57
2021/09/03 01:23:09;;;;;;;32.83;10.10;;;16.00;99.90;;;;;;5047851;28;20048;-59
2021/09/03 01:25:35;;;;;;;37.50;9.52;;;16.00;99.90;;;;;;5033425;28;20033;-58
2021/09/03 01:28:01;;;;;;;32.72;9.65;;;16.00;99.90;;;;;;5032238;28;20408;-59
2021/09/03 01:30:27;;;;;;;25.75;8.68;;;16.00;99.90;;;;;;5033211;28;20045;-59
2021/09/03 01:32:54;;;;;;;28.88;8.95;;;16.00;99.90;;;;;;5032239;28;20052;-59
2021/09/03 01:35:19;;;;;;;29.60;9.35;;;16.00;99.90;;;;;;5033222;28;20022;-60
2021/09/03 01:37:45;;;;;;;33.65;10.05;;;16.00;99.90;;;;;;5032355;28;20033;-60
2021/09/03 01:40:11;;;;;;;33.85;9.70;;;16.00;99.90;;;;;;5033080;28;20392;-59
2021/09/03 01:42:37;;;;;;;28.00;9.82;;;16.00;99.90;;;;;;5031815;28;20087;-60
2021/09/03 01:45:04;;;;;;;28.63;9.77;;;16.00;99.90;;;;;;5033224;28;20044;-59
2021/09/03 01:47:30;;;;;;;31.63;9.60;;;16.00;99.90;;;;;;5031941;28;20398;-59
2021/09/03 01:49:56;;;;;;;33.72;10.52;;;15.90;99.90;;;;;;5033164;28;20142;-59
2021/09/03 01:52:21;;;;;;;34.97;10.25;;;15.90;99.90;;;;;;5031832;28;20458;-59
2021/09/03 01:54:47;;;;;;;35.80;10.43;;;15.90;99.90;;;;;;5032626;28;20037;-59
2021/09/03 01:57:13;;;;;;;38.67;11.05;;;15.90;99.90;;;;;;5031991;28;20053;-59
2021/09/03 01:59:39;;;;;;;34.70;10.68;;;15.90;99.90;;;;;;5032763;28;20042;-60
2021/09/03 02:02:04;;;;;;;30.27;9.75;;;15.90;99.90;;;;;;5032080;28;20128;-59
2021/09/03 02:04:30;;;;;;;33.78;11.23;;;15.90;99.90;;;;;;5032268;28;20029;-59
2021/09/03 02:06:56;;;;;;;34.38;10.95;;;16.00;99.90;;;;;;5032035;28;20131;-61
2021/09/03 02:09:21;;;;;;;39.10;10.73;;;15.90;99.90;;;;;;5032223;28;20021;-60
2021/09/03 02:11:47;;;;;;;42.88;11.48;;;15.90;99.90;;;;;;5032370;28;20037;-59
2021/09/03 02:14:13;;;;;;;38.47;10.98;;;15.90;99.90;;;;;;5031649;28;20435;-59
2021/09/03 02:16:39;;;;;;;42.45;11.18;;;15.80;99.90;;;;;;5032680;28;20021;-60
2021/09/03 02:19:05;;;;;;;30.20;10.75;;;15.80;99.90;;;;;;5031408;28;20056;-59
2021/09/03 02:21:31;;;;;;;41.67;11.45;;;15.90;99.90;;;;;;5032629;28;20069;-59
2021/09/03 02:23:57;;;;;;;44.90;12.07;;;15.80;99.90;;;;;;5031347;28;20082;-59
2021/09/03 02:26:23;;;;;;;35.55;11.48;;;15.90;99.90;;;;;;5032013;28;20425;-60
2021/09/03 02:28:49;;;;;;;36.20;11.57;;;15.90;99.90;;;;;;5031126;28;20476;-59
2021/09/03 02:31:15;;;;;;;34.17;11.30;;;15.90;99.90;;;;;;5031949;28;20033;-59
2021/09/03 02:33:40;;;;;;;42.53;10.75;;;15.80;99.90;;;;;;5031396;28;20101;-61
2021/09/03 02:36:06;;;;;;;32.10;10.80;;;15.80;99.90;;;;;;5032028;28;20424;-60
2021/09/03 02:38:32;;;;;;;40.17;11.25;;;15.80;99.90;;;;;;5031344;28;20022;-59
2021/09/03 02:40:57;;;;;;;33.13;11.18;;;15.80;99.90;;;;;;5032167;28;20456;-59
2021/09/03 02:43:23;;;;;;;32.40;11.80;;;15.80;99.90;;;;;;5030918;28;20033;-58
2021/09/03 02:45:49;;;;;;;37.10;11.85;;;15.80;99.90;;;;;;5032027;28;20373;-60
2021/09/03 02:48:14;;;;;;;33.92;11.15;;;15.80;99.90;;;;;;5031067;28;20056;-60
2021/09/03 02:50:41;;;;;;;35.60;10.75;;;15.80;99.90;;;;;;5031590;28;20029;-59
2021/09/03 02:53:06;;;;;;;38.50;11.43;;;15.80;99.90;;;;;;5030568;28;20040;-57
2021/09/03 02:55:32;;;;;;;33.00;11.15;;;15.80;99.90;;;;;;5031107;28;20021;-60
2021/09/03 02:57:58;;;;;;;33.90;11.10;;;15.80;99.90;;;;;;5030895;28;20045;-58
2021/09/03 03:00:24;;;;;;;34.53;10.95;;;15.80;99.90;;;;;;5031622;28;20044;-61
2021/09/03 03:02:51;;;;;;;38.10;11.32;;;15.80;99.90;;;;;;5027001;28;20029;-61
2021/09/03 03:05:17;;;;;;;33.67;11.10;;;15.80;99.90;;;;;;5031792;28;20033;-59
2021/09/03 03:07:43;;;;;;;38.78;11.70;;;15.80;99.90;;;;;;5030816;28;20159;-60
2021/09/03 03:10:09;;;;;;;30.30;10.18;;;15.80;99.90;;;;;;5031328;28;20108;-59
2021/09/03 03:12:35;;;;;;;39.42;11.88;;;15.80;99.90;;;;;;5030941;28;20131;-62
2021/09/03 03:15:01;;;;;;;36.90;11.52;;;15.80;99.90;;;;;;5031255;28;20116;-60
2021/09/03 03:17:27;;;;;;;44.15;11.73;;;15.70;99.90;;;;;;5030730;28;20474;-59
2021/09/03 03:19:53;;;;;;;35.15;10.95;;;15.70;99.90;;;;;;5030387;28;20065;-61
2021/09/03 03:22:19;;;;;;;34.58;11.43;;;15.70;99.90;;;;;;5031336;28;20472;-59
2021/09/03 03:24:44;;;;;;;40.85;11.95;;;15.70;99.90;;;;;;5030578;28;20409;-60
2021/09/03 03:27:10;;;;;;;35.20;11.77;;;15.70;99.90;;;;;;5030843;28;20026;-59
2021/09/03 03:29:36;;;;;;;39.67;11.60;;;15.70;99.90;;;;;;5030462;28;20045;-60
2021/09/03 03:32:02;;;;;;;36.67;11.88;;;15.70;99.90;;;;;;5030890;28;20072;-61
2021/09/03 03:34:28;;;;;;;39.92;11.93;;;15.70;99.90;;;;;;5030208;28;20041;-61
2021/09/03 03:36:53;;;;;;;33.55;11.38;;;15.70;99.90;;;;;;5031130;28;20099;-61
2021/09/03 03:39:19;;;;;;;32.00;10.57;;;15.70;99.90;;;;;;5030315;28;20471;-60
2021/09/03 03:41:45;;;;;;;40.40;12.13;;;15.70;99.90;;;;;;5031108;28;20038;-60
2021/09/03 03:44:10;;;;;;;32.88;11.25;;;15.70;99.90;;;;;;5030030;28;20029;-59
2021/09/03 03:46:36;;;;;;;40.08;11.73;;;15.70;99.90;;;;;;5031155;28;20028;-59
2021/09/03 03:49:02;;;;;;;40.83;11.57;;;15.70;99.90;;;;;;5030036;28;20059;-60
2021/09/03 03:51:28;;;;;;;37.22;11.35;;;15.70;99.90;;;;;;5030906;28;20472;-60
2021/09/03 03:53:53;;;;;;;38.40;11.02;;;15.70;99.90;;;;;;5030034;28;20435;-61
2021/09/03 03:56:19;;;;;;;36.90;11.27;;;15.70;99.90;;;;;;5046065;28;20095;-60
2021/09/03 03:58:45;;;;;;;38.42;11.35;;;15.60;99.90;;;;;;5030384;28;20025;-60
2021/09/03 04:01:11;;;;;;;36.65;11.75;;;15.60;99.90;;;;;;5030528;28;20033;-62
2021/09/03 04:03:37;;;;;;;35.35;11.40;;;15.60;99.90;;;;;;5030400;28;20033;-60
2021/09/03 04:06:02;;;;;;;32.28;11.10;;;15.70;99.90;;;;;;5033507;28;20116;-60
2021/09/03 04:08:28;;;;;;;33.03;10.98;;;15.70;99.90;;;;;;5033865;28;20025;-59
2021/09/03 04:10:54;;;;;;;32.70;10.63;;;15.60;99.90;;;;;;5034730;28;20030;-60
2021/09/03 04:13:20;;;;;;;39.35;11.98;;;15.70;99.90;;;;;;5033777;28;20021;-60
2021/09/03 04:15:46;;;;;;;39.67;12.00;;;15.80;99.90;;;;;;5035016;28;20025;-59
2021/09/03 04:18:12;;;;;;;39.78;12.35;;;15.80;99.90;;;;;;5033882;28;20133;-61
2021/09/03 04:20:38;;;;;;;34.78;11.05;;;15.70;99.90;;;;;;5034729;28;20116;-60
2021/09/03 04:23:03;;;;;;;35.25;11.77;;;15.70;99.90;;;;;;5033727;28;20434;-60
2021/09/03 04:25:29;;;;;;;31.48;10.77;;;15.70;99.90;;;;;;5034030;28;20025;-61
2021/09/03 04:27:55;;;;;;;38.80;11.55;;;15.70;99.90;;;;;;5033857;28;20033;-60
2021/09/03 04:30:21;;;;;;;40.78;12.10;;;15.60;99.90;;;;;;5034165;28;20029;-59
2021/09/03 04:32:46;;;;;;;39.90;11.43;;;15.70;99.90;;;;;;5034458;28;20048;-60
2021/09/03 04:35:12;;;;;;;36.33;11.15;;;15.70;99.90;;;;;;5033707;28;20483;-60
2021/09/03 04:37:48;;;;;;;38.50;11.65;;;15.70;99.90;;;;;;5034577;28;20026;-61
2021/09/03 04:40:16;;;;;;;38.00;12.00;;;15.60;99.90;;;;;;5033489;28;20042;-61
2021/09/03 04:42:42;;;;;;;39.17;11.07;;;15.60;99.90;;;;;;5034192;28;20499;-61
2021/09/03 04:45:08;;;;;;;46.75;12.10;;;15.60;99.90;;;;;;5033081;28;20033;-62
2021/09/03 04:47:34;;;;;;;33.60;11.35;;;15.60;99.90;;;;;;5034042;28;20091;-59
2021/09/03 04:50:00;;;;;;;46.58;12.18;;;15.60;99.90;;;;;;5033368;28;20072;-60
2021/09/03 04:52:25;;;;;;;39.45;12.13;;;15.60;99.90;;;;;;5034022;28;20391;-59
2021/09/03 04:54:51;;;;;;;33.70;11.45;;;15.60;99.90;;;;;;5033401;28;20112;-61
2021/09/03 04:57:17;;;;;;;48.53;13.70;;;15.60;99.90;;;;;;5033879;28;20030;-61
2021/09/03 04:59:43;;;;;;;34.70;10.70;;;15.50;99.90;;;;;;5033503;28;20029;-61
2021/09/03 05:02:08;;;;;;;33.55;11.52;;;15.60;99.90;;;;;;5033568;28;20064;-60
2021/09/03 05:04:34;;;;;;;41.05;12.65;;;15.60;99.90;;;;;;5033006;28;20051;-60
2021/09/03 05:07:00;;;;;;;44.85;16.05;;;15.60;99.90;;;;;;5033777;28;20364;-60
2021/09/03 05:09:25;;;;;;;35.50;12.00;;;15.60;99.90;;;;;;5032700;28;20028;-62
2021/09/03 05:11:51;;;;;;;41.95;12.63;;;15.50;99.90;;;;;;5033614;28;20106;-60
2021/09/03 05:14:17;;;;;;;37.10;12.38;;;15.60;99.90;;;;;;5032391;28;20087;-60
2021/09/03 05:16:42;;;;;;;37.58;11.93;;;15.50;99.90;;;;;;5032305;28;20029;-61
2021/09/03 05:19:08;;;;;;;38.78;11.02;;;15.50;99.90;;;;;;5032475;28;20034;-60
2021/09/03 05:21:34;;;;;;;39.03;11.75;;;15.50;99.90;;;;;;5033411;28;20045;-60
2021/09/03 05:24:00;;;;;;;38.10;12.20;;;15.50;99.90;;;;;;5032564;28;20514;-62
2021/09/03 05:26:26;;;;;;;35.88;11.30;;;15.50;99.90;;;;;;5033546;28;20057;-59
2021/09/03 05:28:51;;;;;;;41.25;11.43;;;15.50;99.90;;;;;;5032470;28;20458;-59
2021/09/03 05:31:17;;;;;;;43.13;12.68;;;15.50;99.90;;;;;;5033267;28;20029;-60
2021/09/03 05:33:43;;;;;;;35.72;11.25;;;15.50;99.90;;;;;;5032244;28;20033;-61
2021/09/03 05:36:09;;;;;;;37.75;11.82;;;15.60;99.90;;;;;;5033016;28;20112;-61
2021/09/03 05:38:34;;;;;;;38.47;12.15;;;15.50;99.90;;;;;;5032647;28;20071;-61
2021/09/03 05:41:00;;;;;;;39.80;11.90;;;15.60;99.90;;;;;;5033004;28;20121;-59
2021/09/03 05:43:26;;;;;;;30.95;11.82;;;15.50;99.90;;;;;;5032410;28;20044;-61
2021/09/03 05:45:52;;;;;;;36.50;12.52;;;15.50;99.90;;;;;;5033004;28;20037;-60
2021/09/03 05:48:17;;;;;;;38.63;11.80;;;15.60;99.90;;;;;;5032803;28;20048;-61
2021/09/03 05:50:43;;;;;;;35.67;11.38;;;15.60;99.90;;;;;;5032423;28;20037;-59
2021/09/03 05:53:09;;;;;;;40.80;12.32;;;15.70;99.90;;;;;;5032692;28;20034;-60
2021/09/03 05:55:34;;;;;;;36.42;11.48;;;15.70;99.90;;;;;;5031776;28;20026;-58
2021/09/03 05:58:00;;;;;;;33.17;13.00;;;15.70;99.90;;;;;;5033167;28;20033;-60
2021/09/03 06:00:26;;;;;;;33.05;11.30;;;15.70;99.90;;;;;;5031850;28;20045;-61
2021/09/03 06:02:52;;;;;;;38.08;11.57;;;15.70;99.90;;;;;;5032669;28;20123;-60
2021/09/03 06:05:17;;;;;;;36.92;13.02;;;15.60;99.90;;;;;;5031761;28;20053;-59
2021/09/03 06:07:43;;;;;;;41.28;12.02;;;15.70;99.90;;;;;;5032750;28;20037;-60
2021/09/03 06:10:10;;;;;;;42.45;12.13;;;15.70;99.90;;;;;;5046850;28;20508;-62
2021/09/03 06:12:36;;;;;;;33.67;11.38;;;15.70;99.90;;;;;;5032491;28;20093;-60
2021/09/03 06:15:03;;;;;;;34.25;10.63;;;15.70;99.90;;;;;;5046733;28;20025;-60
2021/09/03 06:17:29;;;;;;;34.63;11.27;;;15.80;99.90;;;;;;5032111;28;20095;-59
2021/09/03 06:19:55;;;;;;;31.48;10.80;;;15.80;99.90;;;;;;5031353;28;20479;-61
2021/09/03 06:22:20;;;;;;;35.38;11.57;;;15.80;99.90;;;;;;5032330;28;20383;-59
2021/09/03 06:24:46;;;;;;;34.50;10.98;;;15.90;99.90;;;;;;5031349;28;20494;-60
2021/09/03 06:27:12;;;;;;;32.40;11.23;;;15.90;99.90;;;;;;5047556;28;20033;-60
2021/09/03 06:32:14;;;;;;;36.30;11.18;;;15.90;99.90;;;;;;5031850;28;20064;-59
2021/09/03 06:34:43;;;;;;;33.88;11.35;;;15.90;99.90;;;;;;5031470;28;20547;-59
2021/09/03 06:37:09;;;;;;;31.30;12.20;;;15.90;99.90;;;;;;5031593;28;20068;-61
2021/09/03 06:39:36;;;;;;;30.52;10.73;;;16.00;99.90;;;;;;5030997;28;20116;-61
2021/09/03 06:42:03;;;;;;;29.33;10.70;;;16.00;99.90;;;;;;5031530;28;20033;-59
2021/09/03 06:44:28;;;;;;;39.97;10.93;;;16.00;99.90;;;;;;5030829;28;20036;-60
2021/09/03 06:46:54;;;;;;;34.50;11.25;;;16.10;99.90;;;;;;5031965;28;20391;-60
2021/09/03 06:49:20;;;;;;;34.60;10.68;;;16.00;99.90;;;;;;5030995;28;20450;-60
2021/09/03 06:51:45;;;;;;;35.53;10.23;;;16.10;99.90;;;;;;5031734;28;20108;-59
2021/09/03 06:54:11;;;;;;;37.70;10.68;;;16.10;99.90;;;;;;5031118;28;20021;-59
2021/09/03 06:56:37;;;;;;;33.03;10.30;;;16.20;99.90;;;;;;5031481;28;20556;-59
2021/09/03 06:59:02;;;;;;;35.60;10.13;;;16.30;99.90;;;;;;5030825;28;20031;-59
2021/09/03 07:01:29;;;;;;;31.95;10.27;;;16.30;99.90;;;;;;5031088;28;20033;-59
2021/09/03 07:03:54;;;;;;;25.63;9.77;;;16.30;99.90;;;;;;5030809;28;20029;-59
2021/09/03 07:06:20;;;;;;;30.58;10.32;;;16.40;99.90;;;;;;5031285;28;20512;-60
2021/09/03 07:08:46;;;;;;;27.60;10.20;;;16.40;99.90;;;;;;5031301;28;20038;-59
2021/09/03 07:11:12;;;;;;;30.52;10.60;;;16.50;99.90;;;;;;5029998;28;20488;-60
2021/09/03 07:13:37;;;;;;;26.92;9.32;;;16.50;99.90;;;;;;5031433;28;20112;-59
2021/09/03 07:16:03;;;;;;;29.00;9.93;;;16.50;99.90;;;;;;5029797;28;20395;-59
2021/09/03 07:18:29;;;;;;;26.85;8.85;;;16.60;99.90;;;;;;5031035;28;20033;-59
2021/09/03 07:20:55;;;;;;;27.98;9.40;;;16.50;99.90;;;;;;5030466;28;20124;-60
2021/09/03 07:23:21;;;;;;;32.17;9.98;;;16.60;99.90;;;;;;5031064;28;20025;-59
2021/09/03 07:25:46;;;;;;;26.77;9.43;;;16.70;99.90;;;;;;5030204;28;20535;-59
2021/09/03 07:28:12;;;;;;;30.30;9.50;;;16.70;99.90;;;;;;5031003;28;20399;-60
2021/09/03 07:30:38;;;;;;;21.45;7.95;;;16.70;99.90;;;;;;5030597;28;20361;-57
2021/09/03 07:33:03;;;;;;;27.10;8.65;;;16.70;99.90;;;;;;5031027;28;20033;-58
2021/09/03 07:35:29;;;;;;;29.55;9.52;;;16.80;99.90;;;;;;5029791;28;20369;-58
2021/09/03 07:37:56;;;;;;;28.70;9.38;;;16.90;99.90;;;;;;5030970;28;20369;-60
2021/09/03 07:40:22;;;;;;;25.20;8.20;;;16.90;99.90;;;;;;5026240;28;20061;-61
2021/09/03 07:42:48;;;;;;;28.50;8.57;;;17.00;99.90;;;;;;5020432;28;20439;-60
2021/09/03 07:45:14;;;;;;;27.92;8.63;;;17.00;99.90;;;;;;5029922;28;20038;-61
2021/09/03 07:47:40;;;;;;;25.88;8.77;;;17.10;99.90;;;;;;5031023;28;20025;-60
2021/09/03 07:50:07;;;;;;;26.77;8.60;;;17.10;99.90;;;;;;5030446;28;20075;-62
2021/09/03 07:52:32;;;;;;;31.10;8.13;;;17.20;99.90;;;;;;5030720;28;20549;-59
2021/09/03 07:54:58;;;;;;;28.60;9.73;;;17.20;99.90;;;;;;5030196;28;20029;-59
2021/09/03 07:57:24;;;;;;;26.60;8.15;;;17.20;99.90;;;;;;5030676;28;20529;-58
2021/09/03 07:59:50;;;;;;;27.63;9.15;;;17.30;99.90;;;;;;5029713;28;20089;-59
2021/09/03 08:02:15;;;;;;;24.88;7.88;;;17.40;99.90;;;;;;5030564;28;20406;-60
2021/09/03 08:04:41;;;;;;;26.17;8.30;;;17.40;99.90;;;;;;5030052;28;20207;-60
2021/09/03 08:07:07;;;;;;;26.85;8.05;;;17.50;99.90;;;;;;5030863;28;20037;-63
2021/09/03 08:09:32;;;;;;;21.88;7.95;;;17.40;99.90;;;;;;5029550;28;20534;-59
2021/09/03 08:11:59;;;;;;;22.92;7.32;;;17.40;99.90;;;;;;5030564;28;20144;-60
2021/09/03 08:14:25;;;;;;;21.27;7.47;;;17.40;99.90;;;;;;5030140;28;20045;-61
2021/09/03 08:16:51;;;;;;;23.85;7.63;;;17.50;99.90;;;;;;5030258;28;20120;-58
2021/09/03 08:19:16;;;;;;;26.00;7.75;;;17.60;99.90;;;;;;5030524;28;20105;-61
2021/09/03 08:21:42;;;;;;;19.25;7.50;;;17.50;99.90;;;;;;5029903;28;20571;-60
2021/09/03 08:24:08;;;;;;;24.80;8.05;;;17.60;99.90;;;;;;5030485;28;20105;-59
2021/09/03 08:26:33;;;;;;;23.50;8.18;;;17.60;99.90;;;;;;5029618;28;20033;-58
2021/09/03 08:29:00;;;;;;;27.23;8.93;;;17.60;99.90;;;;;;5030249;28;20045;-61
2021/09/03 08:31:25;;;;;;;22.50;8.07;;;17.70;99.90;;;;;;5029497;28;20057;-59
2021/09/03 08:33:51;;;;;;;25.30;8.45;;;17.80;99.90;;;;;;5030165;28;20421;-60
2021/09/03 08:36:17;;;;;;;30.23;8.95;;;17.90;99.90;;;;;;5029521;28;20090;-59
2021/09/03 08:38:43;;;;;;;27.65;9.27;;;18.00;99.90;;;;;;5030437;28;20034;-60
2021/09/03 08:41:09;;;;;;;23.13;9.60;;;18.20;99.90;;;;;;5029512;28;20095;-60
2021/09/03 08:43:35;;;;;;;25.75;10.18;;;18.10;99.90;;;;;;5030339;28;20486;-59
2021/09/03 08:46:01;;;;;;;26.85;10.52;;;18.30;99.90;;;;;;5030345;28;20030;-62
2021/09/03 08:48:27;;;;;;;25.30;10.93;;;18.40;99.90;;;;;;5029914;28;20029;-60
2021/09/03 08:50:56;;;;;;;24.42;10.80;;;18.50;99.90;;;;;;5029670;28;20179;-60
2021/09/03 08:53:23;;;;;;;29.02;12.38;;;18.60;99.90;;;;;;5033213;28;20063;-60
2021/09/03 08:55:53;;;;;;;28.27;12.35;;;18.60;99.90;;;;;;5032675;28;20021;-59
2021/09/03 08:58:20;;;;;;;26.75;11.88;;;18.60;99.90;;;;;;5033988;28;20040;-59
2021/09/03 09:01:04;;;;;;;25.30;10.73;;;18.60;99.90;;;;;;5032667;28;20476;-60
2021/09/03 09:03:38;;;;;;;29.42;12.35;;;18.70;99.90;;;;;;5033664;28;20104;-59
2021/09/03 09:06:05;;;;;;;28.40;10.93;;;18.80;99.90;;;;;;5033026;28;20507;-61
2021/09/03 09:08:32;;;;;;;26.63;12.88;;;18.90;99.90;;;;;;5033398;28;20292;-58
2021/09/03 09:11:01;;;;;;;27.58;13.45;;;19.00;99.90;;;;;;5030752;28;20091;-61
2021/09/03 09:13:31;;;;;;;27.23;13.10;;;19.00;99.90;;;;;;5033638;28;20167;-61
2021/09/03 09:16:08;;;;;;;27.65;12.80;;;19.00;99.90;;;;;;5032545;28;20064;-59
2021/09/03 09:18:45;;;;;;;32.17;12.55;;;19.10;99.90;;;;;;5033610;28;20021;-58
2021/09/03 09:21:23;;;;;;;27.80;12.52;;;19.10;99.90;;;;;;5032453;28;20038;-59
2021/09/03 09:23:59;;;;;;;29.05;12.27;;;19.20;99.90;;;;;;5020518;28;20033;-59
2021/09/03 09:26:46;;;;;;;25.40;11.55;;;19.30;99.90;;;;;;5031917;28;20124;-59
2021/09/03 09:29:22;;;;;;;32.70;14.63;;;19.40;99.90;;;;;;5033050;28;20492;-60
2021/09/03 09:32:03;;;;;;;29.58;14.40;;;19.50;99.90;;;;;;5032281;28;20472;-61
2021/09/03 09:34:34;;;;;;;26.30;13.50;;;19.50;99.90;;;;;;5033049;28;20029;-59
2021/09/03 09:37:02;;;;;;;28.90;14.70;;;19.50;99.90;;;;;;5032164;28;20480;-58
2021/09/03 09:39:48;;;;;;;32.67;14.80;;;19.70;99.90;;;;;;5033018;28;20022;-59
2021/09/03 09:42:21;;;;;;;28.30;13.30;;;19.80;99.90;;;;;;5032261;28;20033;-59
2021/09/03 09:45:00;;;;;;;23.33;13.82;;;19.70;99.90;;;;;;5033048;28;20040;-59
2021/09/03 09:47:25;;;;;;;43.97;17.05;;;19.70;99.90;;;;;;5032452;28;20029;-60
2021/09/03 09:49:54;;;;;;;31.00;15.57;;;19.80;99.90;;;;;;5032590;28;20075;-60
2021/09/03 09:52:37;;;;;;;31.27;14.80;;;19.90;99.90;;;;;;5032236;28;20471;-61
2021/09/03 09:55:06;;;;;;;28.95;14.48;;;20.00;99.90;;;;;;5031998;28;20072;-60
2021/09/03 09:57:34;;;;;;;29.60;16.08;;;20.10;99.90;;;;;;5047612;28;20044;-59
2021/09/03 10:00:04;;;;;;;27.45;15.20;;;20.20;99.90;;;;;;5032195;28;20491;-61
2021/09/03 10:02:33;;;;;;;28.15;15.90;;;20.20;99.90;;;;;;5031851;28;20099;-60
2021/09/03 10:05:01;;;;;;;27.73;14.43;;;20.30;99.90;;;;;;5032815;28;20117;-60
2021/09/03 10:07:27;;;;;;;29.15;15.30;;;20.40;99.90;;;;;;5032300;28;20292;-61
2021/09/03 10:09:53;;;;;;;26.75;14.35;;;20.60;99.90;;;;;;5032522;28;20056;-61
2021/09/03 10:12:19;;;;;;;27.77;14.88;;;20.60;99.90;;;;;;5031786;28;20037;-60
2021/09/03 10:14:46;;;;;;;28.30;14.95;;;20.50;99.90;;;;;;5032183;28;20022;-60
2021/09/03 10:17:13;;;;;;;29.83;15.70;;;20.60;99.90;;;;;;5031528;28;20045;-60
2021/09/03 10:19:41;;;;;;;31.33;15.90;;;20.80;99.90;;;;;;5032193;28;20025;-60
2021/09/03 10:22:13;;;;;;;31.85;16.60;;;21.10;99.90;;;;;;5031293;28;20037;-60
2021/09/03 10:24:43;;;;;;;30.85;16.65;;;21.20;99.90;;;;;;5032198;28;20399;-59
2021/09/03 10:27:10;;;;;;;32.42;15.85;;;21.40;99.90;;;;;;5018038;28;20026;-60
2021/09/03 10:29:43;;;;;;;32.35;17.35;;;21.40;99.90;;;;;;5031952;28;20448;-60
2021/09/03 10:32:10;;;;;;;30.20;15.50;;;21.20;99.90;;;;;;5031002;28;20059;-61
2021/09/03 10:37:16;;;;;;;30.40;16.23;;;21.40;99.90;;;;;;5030931;28;20116;-62
2021/09/03 10:39:46;;;;;;;29.38;15.18;;;21.50;99.90;;;;;;5031715;28;20112;-61
2021/09/03 10:42:30;;;;;;;27.30;14.13;;;21.60;99.90;;;;;;5017522;28;20036;-59
2021/09/03 10:45:02;;;;;;;28.73;15.40;;;21.60;99.90;;;;;;5031788;28;20423;-59
2021/09/03 10:47:36;;;;;;;29.95;15.75;;;21.50;99.90;;;;;;5031105;28;20265;-61
2021/09/03 10:50:10;;;;;;;29.58;16.17;;;21.60;99.90;;;;;;5031643;28;20040;-58
2021/09/03 10:52:36;;;;;;;27.80;17.30;;;21.60;99.90;;;;;;5030975;28;20032;-59
2021/09/03 10:55:02;;;;;;;34.53;18.08;;;21.80;99.90;;;;;;5031395;28;20037;-58
2021/09/03 10:57:28;;;;;;;33.00;16.60;;;21.70;99.90;;;;;;5030437;28;20495;-60
2021/09/03 11:00:16;;;;;;;30.38;16.35;;;21.50;99.90;;;;;;5031727;28;20025;-60
2021/09/03 11:02:42;;;;;;;27.80;16.92;;;21.60;99.90;;;;;;5030654;28;20041;-60
2021/09/03 11:05:11;;;;;;;29.10;17.23;;;21.60;99.90;;;;;;5030746;28;20033;-60
2021/09/03 11:07:42;;;;;;;30.35;16.42;;;21.60;99.90;;;;;;5030369;28;20055;-59
2021/09/03 11:10:19;;;;;;;30.25;15.65;;;21.60;99.90;;;;;;5031296;28;20056;-60
2021/09/03 11:12:49;;;;;;;27.92;14.38;;;21.60;99.90;;;;;;5030857;28;20032;-60
2021/09/03 11:15:15;;;;;;;27.70;14.38;;;21.80;99.90;;;;;;5017740;28;20029;-59
2021/09/03 11:17:41;;;;;;;28.55;13.55;;;22.00;99.90;;;;;;5030687;28;20176;-60
2021/09/03 11:20:07;;;;;;;30.50;14.18;;;22.00;99.90;;;;;;5031125;28;20494;-60
2021/09/03 11:22:36;;;;;;;29.48;14.18;;;22.00;99.90;;;;;;5030610;28;20498;-60
2021/09/03 11:25:04;;;;;;;26.65;13.05;;;22.10;99.90;;;;;;5031239;28;20029;-62
2021/09/03 11:27:30;;;;;;;22.98;12.38;;;22.10;99.90;;;;;;5030305;28;20025;-60
2021/09/03 11:30:02;;;;;;;25.73;15.10;;;21.90;99.90;;;;;;5030753;28;20050;-61
2021/09/03 11:32:32;;;;;;;23.95;13.85;;;22.00;99.90;;;;;;5030135;28;20037;-59
2021/09/03 11:35:02;;;;;;;26.42;14.20;;;21.80;99.90;;;;;;5031009;28;20064;-59
2021/09/03 11:37:45;;;;;;;27.10;14.40;;;21.80;99.90;;;;;;5030130;28;20036;-60
2021/09/03 11:40:22;;;;;;;28.55;13.75;;;21.80;99.90;;;;;;5030443;28;20032;-58
2021/09/03 11:43:00;;;;;;;29.88;14.77;;;21.60;99.90;;;;;;5030040;28;20060;-61
2021/09/03 11:45:28;;;;;;;28.05;14.18;;;21.80;99.90;;;;;;5031091;28;20026;-60
2021/09/03 11:48:02;;;;;;;28.48;13.95;;;21.80;99.90;;;;;;5030254;28;20427;-58
2021/09/03 11:50:29;;;;;;;24.02;13.68;;;21.80;99.90;;;;;;5030814;28;20041;-59
2021/09/03 11:52:56;;;;;;;24.77;14.13;;;21.70;99.90;;;;;;5045483;28;20466;-62
2021/09/03 11:55:22;;;;;;;25.63;14.52;;;21.70;99.90;;;;;;5030540;28;20025;-58
2021/09/03 11:57:59;;;;;;;25.73;14.55;;;21.70;99.90;;;;;;5030107;28;20546;-58
2021/09/03 12:00:32;;;;;;;36.53;17.05;;;21.70;99.90;;;;;;5030411;28;20171;-60
2021/09/03 12:02:58;;;;;;;28.92;14.20;;;21.60;99.90;;;;;;5030115;28;20064;-60
2021/09/03 12:05:24;;;;;;;27.88;13.27;;;21.60;99.90;;;;;;5030619;28;20041;-59
2021/09/03 12:08:14;;;;;;;30.73;14.65;;;21.70;99.90;;;;;;5023783;28;20113;-60
2021/09/03 12:10:53;;;;;;;26.33;14.52;;;21.80;99.90;;;;;;5025550;28;20036;-59
2021/09/03 12:13:24;;;;;;;22.45;14.35;;;21.90;99.90;;;;;;5030152;28;20502;-60
2021/09/03 12:16:13;;;;;;;28.90;14.55;;;21.90;99.90;;;;;;5030672;28;20475;-59
2021/09/03 12:18:45;;;;;;;32.10;15.13;;;21.70;99.90;;;;;;5017162;28;20040;-61
2021/09/03 12:21:20;;;;;;;24.67;13.95;;;21.80;99.90;;;;;;5029728;28;20042;-62
2021/09/03 12:23:53;;;;;;;27.33;14.48;;;21.90;99.90;;;;;;5030630;28;20033;-59
2021/09/03 12:26:34;;;;;;;24.25;13.27;;;22.00;99.90;;;;;;5031118;28;20125;-61
2021/09/03 12:29:00;;;;;;;26.63;13.57;;;22.00;99.90;;;;;;5022384;28;20052;-61
2021/09/03 12:31:28;;;;;;;35.28;14.27;;;22.10;99.90;;;;;;5033263;28;20412;-61
2021/09/03 12:34:11;;;;;;;28.38;14.88;;;22.10;99.90;;;;;;5034304;28;20041;-62
2021/09/03 12:36:38;;;;;;;23.85;14.60;;;22.00;99.90;;;;;;5033064;28;20025;-60